Time;durP1;ratioP1;P1;durP2;ratioP2;P2;SDS_P1;SDS_P2;PMS_P1;PMS_P2;Temp;Humidity;BMP_temperature;BMP_pressure;BME280_temperature;BME280_humidity;BME280_pressure;Samples;Min_cycle;Max_cycle;Signal;HPM_P1;HPM_P2
2021/07/29 00:00:18;;;;;;;3.35;1.92;;;;;;;14.37;89.04;92692.00;4826211;29;20038;-92
2021/07/29 00:02:55;;;;;;;1.13;1.05;;;;;;;14.17;89.17;92666.97;4810672;29;20081;-91
2021/07/29 00:05:48;;;;;;;;;;;;;;;;;;;;;
2021/07/29 00:08:29;;;;;;;0.93;0.82;;;;;;;14.11;88.46;92655.03;4826002;29;20046;-91
2021/07/29 00:11:15;;;;;;;1.20;1.08;;;;;;;14.33;88.50;92683.94;4825937;29;20046;-91
2021/07/29 00:14:09;;;;;;;0.88;0.73;;;;;;;14.10;88.07;92651.63;4839842;29;20042;-92
2021/07/29 00:17:09;;;;;;;0.52;0.50;;;;;;;14.19;88.04;92664.81;4824671;29;20046;-91
2021/07/29 00:19:50;;;;;;;1.42;0.77;;;;;;;14.43;88.11;92703.16;4802363;29;20050;-92
2021/07/29 00:22:17;;;;;;;0.50;0.50;;;;;;;14.08;88.16;92650.38;4806630;29;20072;-92
2021/07/29 00:24:56;;;;;;;0.80;0.80;;;;;;;14.07;88.18;92646.97;4829599;29;20097;-91
2021/07/29 00:27:34;;;;;;;;;;;;;;;;;;;;;
2021/07/29 00:30:20;;;;;;;1.45;1.35;;;;;;;14.08;88.12;92653.00;4833056;29;20504;-91
2021/07/29 00:33:08;;;;;;;;;;;;;;;;;;;;;
2021/07/29 00:35:53;;;;;;;0.95;0.77;;;;;;;13.97;88.31;92636.69;4840741;29;20050;-92
2021/07/29 00:38:21;;;;;;;1.65;0.95;;;;;;;13.98;88.61;92645.38;4844301;29;20042;-92
2021/07/29 00:40:49;;;;;;;2.17;1.40;;;;;;;13.95;88.38;92639.63;4808815;29;20030;-92
2021/07/29 00:43:37;;;;;;;0.98;0.93;;;;;;;14.12;88.25;92667.13;4826116;29;20064;-91
2021/07/29 00:46:14;;;;;;;1.38;1.02;;;;;;;13.87;88.11;92627.22;4809842;29;20069;-92
2021/07/29 00:48:40;;;;;;;1.08;0.98;;;;;;;14.08;87.65;92658.28;4827140;29;20125;-93
2021/07/29 00:51:18;;;;;;;0.65;0.65;;;;;;;13.94;87.67;92638.09;4824523;29;20038;-92
2021/07/29 00:54:27;;;;;;;1.55;1.00;;;;;;;14.04;87.40;92641.53;4828481;29;20053;-92
2021/07/29 00:57:07;;;;;;;0.60;0.60;;;;;;;14.05;87.35;92651.75;4823095;29;20042;-92
2021/07/29 01:00:01;;;;;;;1.42;1.20;;;;;;;14.26;87.53;92680.97;4854272;29;20709;-92
2021/07/29 01:02:42;;;;;;;1.10;1.00;;;;;;;14.03;87.47;92650.53;4844464;29;20065;-92
2021/07/29 01:05:31;;;;;;;2.88;1.25;;;;;;;13.80;87.73;92616.31;4842014;29;20041;-92
2021/07/29 01:08:12;;;;;;;;;;;;;;;;;;;;;
2021/07/29 01:10:41;;;;;;;0.50;0.50;;;;;;;13.86;87.45;92641.44;4841631;29;20053;-92
2021/07/29 01:13:37;;;;;;;0.57;0.57;;;;;;;14.04;87.36;92662.59;4825263;29;20564;-92
2021/07/29 01:16:12;;;;;;;2.13;1.13;;;;;;;13.80;87.12;92626.84;4842886;29;20056;-92
2021/07/29 01:18:55;;;;;;;0.60;0.60;;;;;;;14.19;86.89;92685.88;4839228;29;20102;-92
2021/07/29 01:22:09;;;;;;;0.50;0.50;;;;;;;13.88;86.84;92625.34;4831218;29;20480;-93
2021/07/29 01:24:53;;;;;;;;;;;;;;;;;;;;;
2021/07/29 01:27:34;;;;;;;;;;;;;;;;;;;;;
2021/07/29 01:30:14;;;;;;;2.45;1.05;;;;;;;13.85;87.74;92634.63;4857914;29;20040;-93
2021/07/29 01:32:47;;;;;;;0.75;0.55;;;;;;;13.71;87.58;92612.88;4848705;29;20049;-92
2021/07/29 01:35:33;;;;;;;;;;;;;;;;;;;;;
2021/07/29 01:38:05;;;;;;;0.65;0.65;;;;;;;14.04;87.74;92675.75;4828268;29;20064;-92
2021/07/29 01:41:01;;;;;;;1.95;1.25;;;;;;;13.65;87.73;92622.00;4826784;29;20523;-92
2021/07/29 01:43:52;;;;;;;;;;;;;;;;;;;;;
2021/07/29 01:46:29;;;;;;;;;;;;;;;;;;;;;
2021/07/29 01:49:02;;;;;;;0.97;0.87;;;;;;;13.83;87.54;92657.84;4841853;29;20047;-92
2021/07/29 01:51:41;;;;;;;;;;;;;;;;;;;;;
2021/07/29 01:54:18;;;;;;;1.20;1.10;;;;;;;13.79;88.12;92656.88;4842020;29;20062;-92
2021/07/29 01:57:09;;;;;;;0.70;0.70;;;;;;;13.52;87.93;92613.09;4826776;29;20076;-91
2021/07/29 01:59:55;;;;;;;;;;;;;;;;;;;;;
2021/07/29 02:02:38;;;;;;;1.23;1.10;;;;;;;13.70;88.05;92656.06;4827658;29;20085;-92
2021/07/29 02:05:27;;;;;;;0.73;0.70;;;;;;;13.65;88.49;92653.56;4841209;29;20518;-92
2021/07/29 02:08:10;;;;;;;;;;;;;;;;;;;;;
2021/07/29 02:10:54;;;;;;;;;;;;;;;;;;;;;
2021/07/29 02:13:52;;;;;;;1.42;1.00;;;;;;;13.53;88.51;92648.81;4855779;29;20045;-91
2021/07/29 02:16:25;;;;;;;1.15;1.02;;;;;;;13.57;88.58;92644.53;4836099;29;20081;-91
2021/07/29 02:19:40;;;;;;;1.00;0.93;;;;;;;13.66;88.87;92657.72;4830978;29;20471;-92
2021/07/29 02:22:16;;;;;;;1.38;0.73;;;;;;;13.39;89.01;92616.56;4843911;29;20145;-92
2021/07/29 02:25:40;;;;;;;0.85;0.82;;;;;;;13.73;88.81;92673.88;4846762;29;20060;-92
2021/07/29 02:28:23;;;;;;;1.52;1.30;;;;;;;13.74;88.87;92672.81;4829765;29;20445;-92
2021/07/29 02:31:02;;;;;;;;;;;;;;;;;;;;;
2021/07/29 02:33:58;;;;;;;1.52;1.05;;;;;;;13.66;89.11;92653.25;4845262;29;20098;-91
2021/07/29 02:36:26;;;;;;;1.10;1.00;;;;;;;13.53;88.64;92639.09;4820079;29;20515;-92
2021/07/29 02:39:42;;;;;;;;;;;;;;;;;;;;;
2021/07/29 02:42:30;;;;;;;1.00;0.82;;;;;;;13.35;89.24;92616.38;4861102;29;20365;-92
2021/07/29 02:45:15;;;;;;;1.25;1.15;;;;;;;13.34;89.24;92620.09;4828467;29;20077;-91
2021/07/29 02:47:53;;;;;;;0.77;0.73;;;;;;;13.53;89.98;92648.81;4826775;29;20041;-91
2021/07/29 02:50:52;;;;;;;1.20;1.02;;;;;;;13.57;90.47;92654.28;4843970;29;20041;-91
2021/07/29 02:53:34;;;;;;;;;;;;;;;;;;;;;
2021/07/29 02:56:10;;;;;;;2.13;1.92;;;;;;;13.34;90.78;92620.09;4825792;29;20046;-91
2021/07/29 02:58:48;;;;;;;;;;;;;;;;;;;;;
2021/07/29 03:01:47;;;;;;;0.57;0.57;;;;;;;13.67;91.68;92675.09;4841839;29;20485;-91
2021/07/29 03:04:38;;;;;;;0.85;0.85;;;;;;;13.53;91.83;92662.78;4836847;29;20046;-91
2021/07/29 03:07:23;;;;;;;1.70;1.25;;;;;;;13.26;91.47;92618.16;4814006;29;20049;-92
2021/07/29 03:10:01;;;;;;;1.05;0.95;;;;;;;13.28;91.28;92629.19;4829375;29;20124;-92
2021/07/29 03:12:37;;;;;;;1.15;0.98;;;;;;;13.61;91.23;92674.41;4828937;29;20076;-91
2021/07/29 03:15:22;;;;;;;0.65;0.65;;;;;;;13.34;91.71;92625.34;4802627;29;20488;-91
2021/07/29 03:18:06;;;;;;;1.55;0.93;;;;;;;13.65;92.24;92677.25;4843912;29;20037;-91
2021/07/29 03:20:42;;;;;;;1.52;1.08;;;;;;;13.56;92.08;92663.25;4828830;29;20102;-92
2021/07/29 03:23:15;;;;;;;1.38;1.02;;;;;;;13.56;91.98;92668.50;4840364;29;20033;-91
2021/07/29 03:25:57;;;;;;;1.55;1.20;;;;;;;13.58;92.15;92667.13;4824520;29;20524;-91
2021/07/29 03:28:26;;;;;;;3.42;1.75;;;;;;;13.34;92.24;92641.13;4810206;29;20469;-91
2021/07/29 03:31:07;;;;;;;1.15;0.95;;;;;;;13.59;92.14;92671.31;4825483;29;20026;-91
2021/07/29 03:33:50;;;;;;;0.55;0.55;;;;;;;13.74;91.84;92691.22;4808699;29;20091;-91
2021/07/29 03:36:29;;;;;;;2.17;1.40;;;;;;;13.40;91.36;92636.53;4799201;29;20042;-91
2021/07/29 03:39:13;;;;;;;3.33;1.15;;;;;;;13.53;90.98;92657.50;4828753;29;20566;-91
2021/07/29 03:41:59;;;;;;;0.60;0.60;;;;;;;13.41;91.04;92630.97;4831067;29;20411;-92
2021/07/29 03:44:50;;;;;;;1.23;1.13;;;;;;;13.51;90.74;92645.75;4824486;29;20480;-91
2021/07/29 03:47:18;;;;;;;0.50;0.50;;;;;;;13.51;90.70;92641.25;4842670;29;20033;-93
2021/07/29 03:50:02;;;;;;;3.45;1.55;;;;;;;13.68;90.69;92661.63;4813346;29;20473;-92
2021/07/29 03:52:55;;;;;;;0.73;0.73;;;;;;;13.94;90.78;92701.25;4827786;29;20442;-92
2021/07/29 03:55:41;;;;;;;;;;;;;;;;;;;;;
2021/07/29 03:58:21;;;;;;;3.20;1.30;;;;;;;13.85;90.65;92674.09;4839696;29;20102;-92
2021/07/29 04:01:17;;;;;;;1.50;1.40;;;;;;;13.65;90.79;92632.53;4818237;29;20041;-92
2021/07/29 04:04:16;;;;;;;0.90;0.82;;;;;;;13.78;90.86;92644.81;4843554;29;20040;-91
2021/07/29 04:06:47;;;;;;;1.52;1.30;;;;;;;13.77;90.81;92638.00;4824306;29;20072;-90
2021/07/29 04:09:34;;;;;;;1.83;1.17;;;;;;;13.95;90.37;92660.69;4824737;29;20050;-91
2021/07/29 04:12:12;;;;;;;0.60;0.60;;;;;;;13.90;90.69;92655.56;4809995;29;20050;-91
2021/07/29 04:14:42;;;;;;;1.13;0.82;;;;;;;13.92;90.68;92657.88;4824385;29;20045;-91
2021/07/29 04:17:12;;;;;;;1.10;0.90;;;;;;;13.91;90.50;92657.09;4812038;29;20041;-92
2021/07/29 04:20:17;;;;;;;;;;;;;;;;;;;;;
2021/07/29 04:22:47;;;;;;;1.80;1.40;;;;;;;14.18;89.45;92681.69;4842108;29;20056;-92
2021/07/29 04:25:34;;;;;;;1.05;0.75;;;;;;;14.17;89.28;92677.50;4829368;29;20041;-92
2021/07/29 04:28:14;;;;;;;2.75;1.77;;;;;;;14.06;89.17;92660.44;4851898;29;20038;-92
2021/07/29 04:30:55;;;;;;;1.85;1.40;;;;;;;14.36;89.13;92691.22;4810121;29;20041;-91
2021/07/29 04:33:33;;;;;;;0.60;0.57;;;;;;;14.24;88.73;92664.69;4821444;29;20566;-91
2021/07/29 04:40:52;;;;;;;2.90;1.77;;;;;;;14.34;88.27;92663.63;4849127;29;20065;-95
2021/07/29 04:44:09;;;;;;;;;;;;;;;;;;;;;
2021/07/29 04:47:31;;;;;;;;;;;;;;;;;;;;;
2021/07/29 04:50:26;;;;;;;1.05;0.93;;;;;;;14.87;88.19;92698.84;4828166;29;20042;-94
2021/07/29 04:53:30;;;;;;;1.85;1.23;;;;;;;14.70;88.33;92667.94;4844427;29;20041;-93
2021/07/29 04:56:29;;;;;;;;;;;;;;;;;;;;;
2021/07/29 04:59:49;;;;;;;;;;;;;;;;;;;;;
2021/07/29 05:05:32;;;;;;;1.45;0.95;;;;;;;14.93;88.50;92656.22;4839063;29;20057;-93
2021/07/29 05:08:32;;;;;;;0.70;0.70;;;;;;;14.98;88.26;92647.38;4834346;29;20118;-93
2021/07/29 05:11:51;;;;;;;1.98;1.17;;;;;;;15.14;87.99;92661.66;4832135;29;20075;-94
2021/07/29 05:15:29;;;;;;;2.00;1.45;;;;;;;15.30;87.57;92675.16;4817201;29;20432;-94
2021/07/29 05:18:47;;;;;;;;;;;;;;;;;;;;;
2021/07/29 05:21:36;;;;;;;;;;;;;;;;;;;;;
2021/07/29 05:24:51;;;;;;;1.42;1.23;;;;;;;15.72;86.12;92675.50;4846859;29;20052;-92
2021/07/29 05:27:54;;;;;;;;;;;;;;;;;;;;;
2021/07/29 05:31:00;;;;;;;1.35;1.05;;;;;;;15.91;85.03;92656.66;4853476;29;20867;-94
2021/07/29 05:34:08;;;;;;;;;;;;;;;;;;;;;
2021/07/29 05:54:10;;;;;;;;;;;;;;;;;;;;;
2021/07/29 05:58:00;;;;;;;;;;;;;;;;;;;;;
2021/07/29 06:08:41;;;;;;;;;;;;;;;;;;;;;
2021/07/29 06:12:11;;;;;;;;;;;;;;;;;;;;;
2021/07/29 06:19:28;;;;;;;;;;;;;;;;;;;;;
2021/07/29 06:22:42;;;;;;;4.40;3.17;;;;;;;24.29;57.70;92698.13;4856281;29;20194;-95
2021/07/29 06:29:49;;;;;;;1.23;1.13;;;;;;;26.48;49.15;92702.25;4867981;29;20127;-95
2021/07/29 06:36:27;;;;;;;4.00;2.40;;;;;;;25.50;50.09;92735.13;4893334;29;20328;-95
2021/07/29 06:40:05;;;;;;;2.42;1.98;;;;;;;26.25;48.95;92702.56;4878339;29;20064;-95
2021/07/29 06:43:11;;;;;;;3.55;1.50;;;;;;;26.56;47.65;92689.63;4831526;29;20096;-92
2021/07/29 06:49:24;;;;;;;;;;;;;;;;;;;;;
2021/07/29 06:52:21;;;;;;;0.75;0.75;;;;;;;24.27;54.91;92751.25;4816038;29;20060;-93
2021/07/29 06:54:49;;;;;;;1.65;1.50;;;;;;;25.31;53.15;92749.56;4853273;24;20057;-78
2021/07/29 06:57:15;;;;;;;1.17;1.00;;;;;;;24.68;54.33;92747.88;4867907;29;20112;-78
2021/07/29 06:59:41;;;;;;;2.88;1.80;;;;;;;23.76;56.68;92751.00;4887963;29;20511;-78
2021/07/29 07:02:06;;;;;;;2.60;1.55;;;;;;;23.31;59.08;92757.97;4887565;29;20049;-79
2021/07/29 07:04:32;;;;;;;2.92;1.50;;;;;;;22.90;60.67;92755.78;4870897;29;20073;-78
2021/07/29 07:06:58;;;;;;;2.08;1.70;;;;;;;22.71;62.17;92750.50;4886348;29;20052;-78
2021/07/29 07:09:23;;;;;;;2.03;1.30;;;;;;;22.70;62.64;92755.06;4888342;29;20049;-77
2021/07/29 07:11:49;;;;;;;1.58;0.95;;;;;;;22.43;62.73;92752.31;4870270;29;20052;-78
2021/07/29 07:14:14;;;;;;;2.33;1.58;;;;;;;22.41;64.05;92761.81;4886339;29;20049;-77
2021/07/29 07:16:40;;;;;;;3.97;1.92;;;;;;;22.58;63.71;92763.22;4871541;29;20048;-78
2021/07/29 07:19:06;;;;;;;1.33;1.23;;;;;;;23.03;62.41;92759.06;4869854;29;20072;-77
2021/07/29 07:21:31;;;;;;;2.45;1.67;;;;;;;23.29;61.54;92755.66;4887079;29;20048;-77
2021/07/29 07:23:58;;;;;;;1.42;1.10;;;;;;;23.19;60.73;92758.94;4886066;29;20123;-78
2021/07/29 07:26:25;;;;;;;2.70;1.60;;;;;;;22.89;60.49;92764.16;4887688;29;20078;-78
2021/07/29 07:28:51;;;;;;;1.58;1.15;;;;;;;22.22;64.96;92758.03;4869420;29;20049;-78
2021/07/29 07:31:18;;;;;;;4.32;1.55;;;;;;;22.26;67.38;92751.97;4885981;29;20060;-77
2021/07/29 07:33:44;;;;;;;2.58;1.48;;;;;;;21.94;65.94;92755.53;4854321;29;20085;-78
2021/07/29 07:36:10;;;;;;;1.88;1.23;;;;;;;22.18;65.71;92759.81;4870326;29;20512;-78
2021/07/29 07:38:36;;;;;;;2.85;1.98;;;;;;;22.19;66.31;92755.25;4870325;29;20049;-77
2021/07/29 07:41:09;;;;;;;2.17;1.65;;;;;;;21.88;67.48;92756.94;4886928;29;20041;-78
2021/07/29 07:43:35;;;;;;;1.13;0.95;;;;;;;21.95;67.50;92761.63;4855926;29;20060;-78
2021/07/29 07:46:03;;;;;;;3.85;1.88;;;;;;;21.99;68.32;92757.16;4869988;29;20047;-77
2021/07/29 07:48:29;;;;;;;1.63;1.35;;;;;;;22.12;67.14;92758.56;4887147;29;20086;-79
2021/07/29 07:50:56;;;;;;;2.33;1.58;;;;;;;22.25;67.40;92751.22;4881521;29;20049;-79
2021/07/29 07:53:26;;;;;;;4.28;1.20;;;;;;;21.99;67.32;92759.81;4867629;29;20202;-79
2021/07/29 07:55:53;;;;;;;1.23;1.02;;;;;;;22.51;65.44;92750.53;4880435;29;20053;-79
2021/07/29 07:58:19;;;;;;;2.92;1.65;;;;;;;22.58;66.14;92747.22;4886273;29;20081;-79
2021/07/29 08:00:45;;;;;;;1.48;1.20;;;;;;;22.73;65.31;92746.34;4888287;29;20041;-79
2021/07/29 08:03:11;;;;;;;1.77;1.15;;;;;;;22.37;66.20;92752.97;4887880;29;20558;-78
2021/07/29 08:05:37;;;;;;;2.22;1.40;;;;;;;22.62;66.81;92743.50;4870411;29;20084;-79
2021/07/29 08:08:07;;;;;;;2.60;1.70;;;;;;;22.72;66.32;92747.50;4886229;29;20056;-78
2021/07/29 08:10:33;;;;;;;1.52;1.38;;;;;;;22.72;64.68;92749.38;4886891;29;20056;-78
2021/07/29 08:12:59;;;;;;;1.15;0.93;;;;;;;21.75;69.08;92748.31;4855835;29;20049;-78
2021/07/29 08:15:24;;;;;;;3.20;1.30;;;;;;;21.32;70.40;92746.56;4870774;29;20045;-78
2021/07/29 08:17:50;;;;;;;1.70;1.20;;;;;;;21.69;67.41;92744.38;4870607;29;20053;-77
2021/07/29 08:20:18;;;;;;;2.95;1.80;;;;;;;21.89;68.07;92741.75;4886701;29;20049;-79
2021/07/29 08:22:44;;;;;;;2.70;1.50;;;;;;;22.00;67.98;92738.16;4855517;29;20049;-77
2021/07/29 08:25:12;;;;;;;2.97;2.15;;;;;;;22.09;66.78;92753.16;4886385;29;20597;-78
2021/07/29 08:27:37;;;;;;;2.42;1.73;;;;;;;21.71;69.60;92747.47;4869542;29;20052;-77
2021/07/29 08:30:03;;;;;;;2.08;1.38;;;;;;;21.88;68.45;92746.28;4868376;29;20053;-78
2021/07/29 08:32:29;;;;;;;2.08;1.27;;;;;;;22.31;66.19;92746.38;4885908;29;20055;-77
2021/07/29 08:34:56;;;;;;;1.17;0.90;;;;;;;22.55;62.21;92743.38;4886697;29;20061;-78
2021/07/29 08:37:22;;;;;;;1.55;1.35;;;;;;;22.58;61.06;92747.22;4886219;29;20048;-79
2021/07/29 08:39:47;;;;;;;1.73;1.20;;;;;;;22.80;58.54;92746.47;4886538;29;20056;-78
2021/07/29 08:42:13;;;;;;;1.67;1.15;;;;;;;22.79;59.90;92752.19;4886847;29;20079;-79
2021/07/29 08:44:39;;;;;;;1.85;1.42;;;;;;;23.04;58.67;92747.28;4850715;29;20080;-79
2021/07/29 08:47:09;;;;;;;3.58;1.90;;;;;;;23.14;58.89;92737.88;4853531;29;20038;-79
2021/07/29 08:49:38;;;;;;;2.13;1.40;;;;;;;23.41;60.15;92746.66;4850272;29;20049;-79
2021/07/29 08:52:05;;;;;;;3.97;1.20;;;;;;;22.88;62.32;92747.38;4849891;29;20417;-78
2021/07/29 08:54:31;;;;;;;2.30;1.35;;;;;;;22.33;65.01;92744.88;4868319;29;20113;-79
2021/07/29 08:56:58;;;;;;;1.23;1.02;;;;;;;22.13;66.96;92754.00;4851951;29;20052;-79
2021/07/29 08:59:23;;;;;;;5.65;1.92;;;;;;;22.48;64.56;92748.59;4884518;29;20053;-78
2021/07/29 09:01:53;;;;;;;4.10;1.73;;;;;;;22.79;62.63;92746.84;4885386;29;20039;-78
2021/07/29 09:04:19;;;;;;;1.20;0.90;;;;;;;23.16;63.85;92748.97;4868800;29;20163;-77
2021/07/29 09:07:02;;;;;;;2.97;1.50;;;;;;;23.22;63.21;92745.66;4868897;29;20048;-77
2021/07/29 09:09:45;;;;;;;3.53;1.70;;;;;;;22.54;66.29;92744.50;4868239;29;20483;-78
2021/07/29 09:12:22;;;;;;;4.00;2.35;;;;;;;22.28;67.47;92747.06;4867227;29;20061;-79
2021/07/29 09:14:49;;;;;;;2.85;1.52;;;;;;;22.72;66.63;92738.69;4886569;29;20076;-78
2021/07/29 09:17:16;;;;;;;1.00;0.95;;;;;;;22.56;66.68;92744.94;4889901;29;20078;-79
2021/07/29 09:19:47;;;;;;;3.38;1.60;;;;;;;22.93;66.75;92744.41;4888876;29;20048;-79
2021/07/29 09:22:18;;;;;;;4.43;2.25;;;;;;;23.09;66.44;92746.97;4889188;29;20045;-78
2021/07/29 09:25:00;;;;;;;1.92;1.00;;;;;;;23.09;64.74;92738.94;4889877;29;20045;-78
2021/07/29 09:27:37;;;;;;;2.80;1.45;;;;;;;22.80;67.51;92743.78;4888399;29;20053;-79
2021/07/29 09:30:09;;;;;;;1.65;1.40;;;;;;;22.64;66.90;92743.91;4887881;29;20444;-78
2021/07/29 09:32:36;;;;;;;2.03;1.58;;;;;;;22.81;66.64;92749.94;4872117;29;20070;-77
2021/07/29 09:35:02;;;;;;;1.38;1.20;;;;;;;22.86;66.65;92744.28;4871469;29;20052;-79
2021/07/29 09:37:27;;;;;;;3.15;1.60;;;;;;;22.99;65.83;92742.19;4871085;29;20427;-79
2021/07/29 09:40:00;;;;;;;3.90;1.85;;;;;;;22.95;64.41;92739.47;4865179;29;20060;-78
2021/07/29 09:42:27;;;;;;;3.50;1.92;;;;;;;22.65;66.00;92745.47;4852669;29;20038;-77
2021/07/29 09:44:54;;;;;;;9.02;2.22;;;;;;;22.87;66.08;92735.13;4873591;29;20408;-79
2021/07/29 09:47:21;;;;;;;2.80;1.55;;;;;;;22.81;65.27;92740.03;4887860;29;20057;-78
2021/07/29 09:49:49;;;;;;;2.20;1.40;;;;;;;22.93;66.89;92739.06;4887739;29;20045;-78
2021/07/29 09:52:15;;;;;;;1.98;1.50;;;;;;;23.26;66.18;92737.69;4887706;29;20041;-79
2021/07/29 09:54:44;;;;;;;1.73;1.40;;;;;;;23.40;65.21;92729.88;4886048;29;20512;-77
2021/07/29 09:57:10;;;;;;;1.98;1.60;;;;;;;23.38;63.89;92726.78;4870946;29;20049;-77
2021/07/29 09:59:37;;;;;;;2.90;1.55;;;;;;;23.19;63.32;92729.56;4871071;29;20569;-77
2021/07/29 10:02:04;;;;;;;1.98;1.33;;;;;;;23.51;63.88;92729.25;4887959;29;20033;-77
2021/07/29 10:04:43;;;;;;;5.30;1.85;;;;;;;23.26;62.33;92727.00;4887936;29;20053;-78
2021/07/29 10:07:18;;;;;;;1.42;1.23;;;;;;;23.46;62.90;92733.00;4887569;29;20057;-78
2021/07/29 10:09:45;;;;;;;5.72;2.30;;;;;;;;;;4887904;29;20045;-77
2021/07/29 10:12:19;;;;;;;2.03;1.70;;;;;;;23.45;62.47;92723.44;4887144;29;20049;-78
2021/07/29 10:14:53;;;;;;;3.67;2.13;;;;;;;23.38;64.98;92726.78;4887973;29;20041;-77
2021/07/29 10:17:34;;;;;;;2.17;1.48;;;;;;;23.71;62.91;92728.00;4870671;29;20108;-78
2021/07/29 10:20:12;;;;;;;2.25;1.63;;;;;;;23.77;61.10;92725.81;4871109;29;20511;-77
2021/07/29 10:22:38;;;;;;;2.90;1.70;;;;;;;23.69;61.60;92727.59;4887348;29;20040;-77
2021/07/29 10:25:04;;;;;;;1.00;0.93;;;;;;;23.08;62.58;92724.06;4870708;29;20043;-79
2021/07/29 10:27:29;;;;;;;2.05;1.63;;;;;;;22.85;64.97;92721.38;4885664;29;20045;-78
2021/07/29 10:30:29;;;;;;;1.77;1.48;;;;;;;23.47;63.93;92716.63;4855383;29;20053;-79
2021/07/29 10:32:57;;;;;;;2.25;1.83;;;;;;;23.58;61.44;92718.69;4887387;29;20056;-78
2021/07/29 10:35:25;;;;;;;0.98;0.90;;;;;;;23.40;60.09;92715.75;4848167;29;20049;-78
2021/07/29 10:37:54;;;;;;;2.50;1.67;;;;;;;23.22;63.23;92708.25;4867513;29;20102;-79
2021/07/29 10:40:39;;;;;;;1.92;1.73;;;;;;;23.04;61.49;92705.31;4851790;29;20086;-78
2021/07/29 10:43:24;;;;;;;2.65;1.90;;;;;;;23.29;61.67;92710.25;4836358;29;20052;-77
2021/07/29 10:45:50;;;;;;;1.95;1.42;;;;;;;23.47;63.30;92708.59;4878621;29;20052;-77
2021/07/29 10:48:44;;;;;;;4.05;2.75;;;;;;;23.41;63.92;92704.69;4887137;29;20041;-78
2021/07/29 10:51:23;;;;;;;3.00;1.95;;;;;;;22.90;63.78;92696.28;4885738;29;20053;-77
2021/07/29 10:53:50;;;;;;;3.60;2.20;;;;;;;23.00;64.39;92695.72;4887670;29;20056;-77
2021/07/29 10:56:22;;;;;;;3.55;2.10;;;;;;;22.97;63.77;92702.53;4884344;29;20060;-77
2021/07/29 10:58:58;;;;;;;2.80;1.65;;;;;;;23.00;63.96;92707.16;4887981;29;20045;-78
2021/07/29 11:01:50;;;;;;;4.82;2.63;;;;;;;22.99;63.64;92702.16;4887280;29;20057;-78
2021/07/29 11:04:16;;;;;;;2.35;2.15;;;;;;;23.02;63.79;92693.47;4886922;29;20056;-78
2021/07/29 11:06:45;;;;;;;4.38;1.55;;;;;;;23.13;65.01;92693.63;4887410;29;20040;-78
2021/07/29 11:09:13;;;;;;;2.95;1.65;;;;;;;23.16;63.31;92692.91;4887366;29;20088;-78
2021/07/29 11:11:40;;;;;;;6.07;2.63;;;;;;;22.62;62.56;92674.13;4887182;29;20045;-77
2021/07/29 11:14:07;;;;;;;5.10;3.10;;;;;;;23.18;61.20;92677.28;4869697;29;20040;-77
2021/07/29 11:16:33;;;;;;;3.00;2.40;;;;;;;23.01;62.06;92676.69;4887264;29;20045;-78
2021/07/29 11:19:00;;;;;;;4.43;2.67;;;;;;;22.88;61.56;92677.97;4870137;29;20049;-77
2021/07/29 11:21:27;;;;;;;1.88;1.20;;;;;;;23.04;60.84;92683.97;4886628;29;20052;-77
2021/07/29 11:23:52;;;;;;;3.63;2.25;;;;;;;23.56;60.36;92678.19;4871055;29;20152;-77
2021/07/29 11:26:18;;;;;;;2.97;1.90;;;;;;;23.83;61.82;92682.38;4887769;29;20064;-79
2021/07/29 11:29:04;;;;;;;3.60;2.08;;;;;;;23.61;62.25;92680.53;4863978;29;20071;-78
2021/07/29 11:31:29;;;;;;;2.75;1.98;;;;;;;23.83;61.00;92679.69;4850485;29;20477;-78
2021/07/29 11:33:55;;;;;;;3.28;2.00;;;;;;;23.58;58.86;92679.38;4867982;29;20086;-78
2021/07/29 11:36:21;;;;;;;4.95;2.47;;;;;;;24.13;60.57;92673.53;4867916;29;20049;-78
2021/07/29 11:38:58;;;;;;;5.38;2.80;;;;;;;24.41;58.10;92683.75;4869652;29;20408;-78
2021/07/29 11:41:24;;;;;;;1.42;1.27;;;;;;;23.89;56.86;92675.56;4867714;29;20064;-79
2021/07/29 11:43:59;;;;;;;4.07;2.17;;;;;;;24.18;57.25;92675.84;4851671;29;20053;-78
2021/07/29 11:46:25;;;;;;;4.55;1.77;;;;;;;24.25;56.64;92664.47;4882649;29;20587;-79
2021/07/29 11:49:10;;;;;;;3.88;2.15;;;;;;;24.48;60.92;92673.13;4886940;29;20061;-79
2021/07/29 11:51:35;;;;;;;1.70;1.15;;;;;;;24.46;58.64;92675.38;4869356;29;20049;-78
2021/07/29 11:54:01;;;;;;;5.18;2.65;;;;;;;23.55;59.71;92669.38;4868972;29;20033;-78
2021/07/29 11:56:27;;;;;;;3.15;1.88;;;;;;;24.01;59.05;92665.75;4868914;29;20049;-78
2021/07/29 11:58:58;;;;;;;2.28;1.83;;;;;;;24.12;56.62;92665.88;4870635;29;20093;-78
2021/07/29 12:01:24;;;;;;;5.05;2.45;;;;;;;23.86;57.08;92660.25;4885651;29;20131;-78
2021/07/29 12:03:51;;;;;;;1.70;1.33;;;;;;;24.28;56.85;92661.84;4885432;29;20056;-78
2021/07/29 12:06:17;;;;;;;3.45;2.38;;;;;;;24.48;53.29;92661.69;4854676;29;20048;-77
2021/07/29 12:08:46;;;;;;;7.88;3.08;;;;;;;24.78;52.72;92658.84;4885417;29;20049;-77
2021/07/29 12:11:13;;;;;;;8.30;2.13;;;;;;;24.97;53.39;92665.91;4869044;29;20056;-78
2021/07/29 12:13:44;;;;;;;2.45;1.58;;;;;;;24.93;54.10;92660.50;4869278;29;20060;-77
2021/07/29 12:16:10;;;;;;;6.13;2.63;;;;;;;24.73;53.85;92657.28;4869082;29;20073;-77
2021/07/29 12:18:37;;;;;;;4.57;2.42;;;;;;;24.64;54.70;92669.47;4885422;29;20051;-78
2021/07/29 12:21:03;;;;;;;2.22;1.65;;;;;;;25.07;55.19;92664.41;4869541;29;20049;-78
2021/07/29 12:23:29;;;;;;;2.38;1.50;;;;;;;24.85;54.38;92652.78;4869039;29;20053;-78
2021/07/29 12:25:58;;;;;;;3.08;2.15;;;;;;;24.91;51.80;92653.97;4850421;29;20116;-78
2021/07/29 12:28:39;;;;;;;5.93;2.10;;;;;;;25.01;51.81;92650.59;4851468;29;20508;-77
2021/07/29 12:31:31;;;;;;;4.00;2.55;;;;;;;24.65;53.29;92653.00;4850202;29;20045;-78
2021/07/29 12:33:58;;;;;;;3.65;2.17;;;;;;;24.91;50.13;92645.94;4850592;29;20442;-78
2021/07/29 12:36:39;;;;;;;1.70;1.20;;;;;;;25.10;52.94;92643.00;4867177;29;20136;-79
2021/07/29 12:39:05;;;;;;;4.00;1.87;;;;;;;24.27;54.70;92654.16;4852936;29;20085;-77
2021/07/29 12:41:35;;;;;;;1.83;1.17;;;;;;;24.13;51.25;92649.44;4868429;29;20049;-78
2021/07/29 12:44:15;;;;;;;2.25;1.60;;;;;;;24.21;55.30;92644.97;4868583;29;20052;-77
2021/07/29 12:46:42;;;;;;;2.35;1.70;;;;;;;24.04;58.29;92652.41;4868761;29;20052;-79
2021/07/29 12:49:08;;;;;;;2.25;1.83;;;;;;;24.20;55.66;92644.16;4887099;29;20048;-78
2021/07/29 12:51:38;;;;;;;5.65;3.25;;;;;;;23.95;57.02;92648.50;4887420;29;20164;-79
2021/07/29 12:54:05;;;;;;;4.13;2.13;;;;;;;24.04;57.18;92636.38;4885617;29;20063;-78
2021/07/29 12:56:31;;;;;;;3.92;2.03;;;;;;;23.90;55.16;92642.34;4869603;29;20049;-78
2021/07/29 12:58:56;;;;;;;4.53;2.60;;;;;;;24.20;56.59;92644.16;4888044;29;20045;-78
2021/07/29 13:01:22;;;;;;;3.78;2.28;;;;;;;24.53;56.58;92637.25;4886472;29;20056;-77
2021/07/29 13:03:50;;;;;;;3.47;2.50;;;;;;;24.88;54.33;92619.91;4887174;29;20049;-77
2021/07/29 13:06:16;;;;;;;3.72;2.22;;;;;;;25.16;52.77;92624.69;4887559;29;20057;-78
2021/07/29 13:08:41;;;;;;;3.35;2.03;;;;;;;25.15;54.44;92623.13;4885613;29;20049;-79
2021/07/29 13:11:08;;;;;;;3.58;2.22;;;;;;;25.02;53.24;92625.38;4886862;29;20053;-79
2021/07/29 13:13:36;;;;;;;8.98;3.15;;;;;;;24.87;53.84;92623.75;4886578;29;20077;-78
2021/07/29 13:16:02;;;;;;;3.67;2.50;;;;;;;25.31;53.48;92631.69;4865377;29;20041;-79
2021/07/29 13:18:28;;;;;;;4.13;2.22;;;;;;;25.50;53.65;92621.81;4861382;29;20045;-79
2021/07/29 13:20:55;;;;;;;8.40;2.97;;;;;;;26.18;53.69;92625.50;4850179;29;20078;-77
2021/07/29 13:23:22;;;;;;;2.58;1.52;;;;;;;25.83;51.20;92626.16;4850713;29;20069;-78
2021/07/29 13:25:49;;;;;;;4.00;2.30;;;;;;;25.90;51.21;92617.41;4850895;29;20064;-79
2021/07/29 13:28:17;;;;;;;2.30;1.98;;;;;;;25.95;51.76;92620.47;4865910;29;20457;-77
2021/07/29 13:30:43;;;;;;;3.35;2.10;;;;;;;25.93;51.46;92609.34;4866983;29;20584;-79
2021/07/29 13:33:12;;;;;;;5.30;3.05;;;;;;;26.28;52.24;92615.94;4850842;29;20060;-77
2021/07/29 13:35:38;;;;;;;1.45;1.00;;;;;;;25.80;52.54;92607.38;4850511;29;20050;-77
2021/07/29 13:38:04;;;;;;;3.42;2.67;;;;;;;25.95;52.48;92606.31;4867783;29;20050;-79
2021/07/29 13:40:31;;;;;;;3.10;2.03;;;;;;;25.83;52.13;92607.41;4867539;29;20083;-77
2021/07/29 13:42:58;;;;;;;3.55;1.77;;;;;;;25.37;52.49;92607.22;4866889;29;20416;-78
2021/07/29 13:45:24;;;;;;;2.42;2.03;;;;;;;25.43;51.72;92611.06;4874945;29;20509;-77
2021/07/29 13:47:58;;;;;;;2.30;1.73;;;;;;;25.45;52.81;92611.47;4884962;29;20045;-78
2021/07/29 13:50:27;;;;;;;4.28;2.60;;;;;;;25.76;54.12;92613.50;4868954;29;20053;-77
2021/07/29 13:52:54;;;;;;;3.72;2.10;;;;;;;25.23;55.59;92613.28;4885577;29;20048;-78
2021/07/29 13:55:20;;;;;;;4.63;2.08;;;;;;;25.43;53.63;92611.84;4883869;29;20077;-79